Time;durP1;ratioP1;P1;durP2;ratioP2;P2;SDS_P1;SDS_P2;PMS_P1;PMS_P2;Temp;Humidity;BMP_temperature;BMP_pressure;BME280_temperature;BME280_humidity;BME280_pressure;Samples;Min_cycle;Max_cycle;Signal;HPM_P1;HPM_P2
2021/06/17 00:01:02;;;;;;;13.82;12.80;;;18.10;61.90;;;;;;5190056;28;20061;-70
2021/06/17 00:03:34;;;;;;;14.13;12.90;;;18.10;62.60;;;;;;5189979;28;20041;-69
2021/06/17 00:06:06;;;;;;;14.13;13.02;;;18.10;62.50;;;;;;5187591;28;20049;-68
2021/06/17 00:08:38;;;;;;;13.63;12.43;;;18.10;62.90;;;;;;5190542;28;20131;-69
2021/06/17 00:11:10;;;;;;;13.43;12.32;;;18.10;62.70;;;;;;5188852;28;20136;-69
2021/06/17 00:13:42;;;;;;;13.50;12.40;;;18.10;62.10;;;;;;5192372;28;20076;-69
2021/06/17 00:16:14;;;;;;;13.30;12.10;;;18.00;62.10;;;;;;5186588;28;20073;-69
2021/06/17 00:18:47;;;;;;;13.30;12.30;;;18.00;62.00;;;;;;5191714;28;20496;-69
2021/06/17 00:21:19;;;;;;;13.40;12.30;;;18.00;61.80;;;;;;5187780;28;20042;-69
2021/06/17 00:23:52;;;;;;;13.68;12.50;;;18.00;62.20;;;;;;5190232;28;20171;-69
2021/06/17 00:26:25;;;;;;;13.15;12.15;;;18.00;62.00;;;;;;5187127;28;20761;-69
2021/06/17 00:28:57;;;;;;;13.60;12.40;;;17.90;61.80;;;;;;5189087;28;20033;-71
2021/06/17 00:31:29;;;;;;;13.63;12.52;;;17.90;61.70;;;;;;5189396;28;20484;-69
2021/06/17 00:34:01;;;;;;;13.52;12.50;;;17.90;61.60;;;;;;5188481;28;20072;-69
2021/06/17 00:36:33;;;;;;;12.60;11.60;;;17.80;62.00;;;;;;5189427;28;20077;-69
2021/06/17 00:39:08;;;;;;;12.10;11.20;;;17.70;62.40;;;;;;5188105;28;20122;-68
2021/06/17 00:41:42;;;;;;;12.38;11.38;;;17.60;62.60;;;;;;5189034;28;21069;-69
2021/06/17 00:44:14;;;;;;;13.15;12.05;;;17.60;62.60;;;;;;5188205;28;20058;-69
2021/06/17 00:46:47;;;;;;;12.38;11.45;;;17.60;62.40;;;;;;5187177;28;20042;-69
2021/06/17 00:49:18;;;;;;;13.00;11.98;;;17.60;62.20;;;;;;5190274;28;20065;-69
2021/06/17 00:51:50;;;;;;;12.45;11.45;;;17.60;62.60;;;;;;5188405;28;20045;-69
2021/06/17 00:54:32;;;;;;;12.52;11.43;;;17.50;63.00;;;;;;5188790;28;20128;-69
2021/06/17 00:57:09;;;;;;;12.50;11.50;;;17.50;63.00;;;;;;5188062;28;20043;-69
2021/06/17 00:59:41;;;;;;;12.80;11.60;;;17.40;62.90;;;;;;5188570;28;20046;-69
2021/06/17 01:02:13;;;;;;;13.23;12.10;;;17.40;64.20;;;;;;5188154;28;20046;-69
2021/06/17 01:04:45;;;;;;;13.05;11.88;;;17.40;65.30;;;;;;5188357;28;20040;-69
2021/06/17 01:07:44;;;;;;;12.23;11.32;;;17.40;65.50;;;;;;5187366;28;20044;-68
2021/06/17 01:10:17;;;;;;;13.03;11.93;;;17.40;65.00;;;;;;5188413;28;20069;-69
2021/06/17 01:12:52;;;;;;;12.65;11.65;;;17.40;64.50;;;;;;5190650;28;20104;-68
2021/06/17 01:15:24;;;;;;;12.88;11.73;;;17.40;63.40;;;;;;5186154;28;20045;-68
2021/06/17 01:18:06;;;;;;;11.93;11.02;;;17.30;63.50;;;;;;5184669;28;20037;-69
2021/06/17 01:20:48;;;;;;;12.38;11.38;;;17.30;64.50;;;;;;5185666;28;20096;-69
2021/06/17 01:23:35;;;;;;;12.55;11.45;;;17.30;63.20;;;;;;5188058;28;20052;-68
2021/06/17 01:26:41;;;;;;;12.23;11.23;;;17.30;62.80;;;;;;5186103;28;20092;-68
2021/06/17 01:29:18;;;;;;;11.88;10.88;;;17.30;62.90;;;;;;5188142;28;20557;-68
2021/06/17 01:31:51;;;;;;;12.32;11.27;;;17.40;63.10;;;;;;5187495;28;20466;-68
2021/06/17 01:34:24;;;;;;;12.65;11.65;;;17.40;63.00;;;;;;5173896;28;20474;-68
2021/06/17 01:37:06;;;;;;;11.65;10.75;;;17.30;62.90;;;;;;5187420;28;20048;-68
2021/06/17 01:39:40;;;;;;;12.77;11.68;;;17.30;63.10;;;;;;5186561;28;21062;-69
2021/06/17 01:42:14;;;;;;;12.50;11.50;;;17.30;63.60;;;;;;5187989;28;20172;-70
2021/06/17 01:44:46;;;;;;;12.30;11.30;;;17.20;63.30;;;;;;5189585;28;20084;-69
2021/06/17 01:47:19;;;;;;;12.63;11.50;;;17.10;63.50;;;;;;5184429;28;20132;-70
2021/06/17 01:49:52;;;;;;;12.38;11.27;;;17.10;63.40;;;;;;5187729;28;20120;-70
2021/06/17 01:52:27;;;;;;;12.70;11.70;;;17.00;64.40;;;;;;5185167;28;20163;-69
2021/06/17 01:55:01;;;;;;;12.75;11.75;;;17.00;64.20;;;;;;5188920;28;20038;-69
2021/06/17 01:57:34;;;;;;;12.85;11.75;;;17.00;64.00;;;;;;5186798;28;20157;-70
2021/06/17 02:00:07;;;;;;;12.38;11.38;;;17.00;65.00;;;;;;5184340;28;20098;-69
2021/06/17 02:02:41;;;;;;;12.43;11.32;;;17.00;65.60;;;;;;5188352;28;20045;-69
2021/06/17 02:05:14;;;;;;;12.30;11.30;;;16.90;65.70;;;;;;5186757;28;20069;-69
2021/06/17 02:07:49;;;;;;;12.80;11.55;;;16.90;65.80;;;;;;5187635;28;20121;-69
2021/06/17 02:10:21;;;;;;;12.88;11.57;;;16.90;65.90;;;;;;5188294;28;20041;-69
2021/06/17 02:12:54;;;;;;;12.32;11.35;;;16.80;64.40;;;;;;5185864;28;20045;-70
2021/06/17 02:15:28;;;;;;;12.70;11.68;;;16.80;65.80;;;;;;5187722;28;20064;-70
2021/06/17 02:18:01;;;;;;;12.15;11.05;;;16.70;65.10;;;;;;5189079;28;20068;-70
2021/06/17 02:20:34;;;;;;;12.50;11.50;;;16.70;64.60;;;;;;5184475;28;20057;-68
2021/06/17 02:23:10;;;;;;;12.45;11.45;;;16.60;64.50;;;;;;5178412;28;20045;-68
2021/06/17 02:25:45;;;;;;;12.70;11.68;;;16.60;64.70;;;;;;5186872;28;20053;-69
2021/06/17 02:28:20;;;;;;;12.77;11.77;;;16.50;64.80;;;;;;5189469;28;20080;-69
2021/06/17 02:30:55;;;;;;;12.63;11.60;;;16.50;64.70;;;;;;5187951;28;20076;-68
2021/06/17 02:33:29;;;;;;;12.70;11.48;;;16.50;64.70;;;;;;5191987;28;20570;-69
2021/06/17 02:36:02;;;;;;;12.60;11.52;;;16.50;64.70;;;;;;5188119;28;20100;-68
2021/06/17 02:38:39;;;;;;;12.75;11.65;;;16.50;64.80;;;;;;5192391;28;20081;-68
2021/06/17 02:41:14;;;;;;;12.68;11.65;;;16.50;65.80;;;;;;5190415;28;20407;-68
2021/06/17 02:43:51;;;;;;;12.38;11.32;;;16.60;66.30;;;;;;5190286;28;20053;-70
2021/06/17 02:46:23;;;;;;;13.07;12.07;;;16.50;66.80;;;;;;5189869;28;20140;-69
2021/06/17 02:48:56;;;;;;;13.10;12.10;;;16.50;66.30;;;;;;5195109;28;20057;-69
2021/06/17 02:51:28;;;;;;;12.60;11.45;;;16.50;66.50;;;;;;5192380;28;20053;-68
2021/06/17 02:54:00;;;;;;;12.75;11.75;;;16.50;66.20;;;;;;5191441;28;20541;-69
2021/06/17 02:56:57;;;;;;;13.90;12.60;;;16.50;65.70;;;;;;5188150;28;20065;-69
2021/06/17 02:59:41;;;;;;;13.23;12.20;;;16.50;65.80;;;;;;5193680;28;20120;-69
2021/06/17 03:02:18;;;;;;;13.13;12.02;;;16.50;66.60;;;;;;5192259;28;20458;-69
2021/06/17 03:04:57;;;;;;;13.65;12.55;;;16.40;65.90;;;;;;5188344;28;20042;-69
2021/06/17 03:07:37;;;;;;;13.48;12.27;;;16.40;67.10;;;;;;5187404;28;20515;-69
2021/06/17 03:10:11;;;;;;;13.18;12.18;;;16.30;66.70;;;;;;5189900;28;20115;-71
2021/06/17 03:12:47;;;;;;;13.00;12.00;;;16.30;67.50;;;;;;5189020;28;20053;-69
2021/06/17 03:15:20;;;;;;;12.30;11.30;;;16.20;67.20;;;;;;5190187;28;20041;-68
2021/06/17 03:17:54;;;;;;;12.63;11.60;;;16.20;66.60;;;;;;5172800;28;20111;-71
2021/06/17 03:20:29;;;;;;;12.60;11.60;;;16.30;66.40;;;;;;5172961;28;20104;-69
2021/06/17 03:23:06;;;;;;;12.75;11.55;;;16.30;65.70;;;;;;5192138;28;20050;-69
2021/06/17 03:25:40;;;;;;;13.05;11.95;;;16.30;65.40;;;;;;5193025;28;20120;-70
2021/06/17 03:28:14;;;;;;;12.70;11.70;;;16.30;66.10;;;;;;5189888;28;20073;-69
2021/06/17 03:30:48;;;;;;;12.40;11.32;;;16.30;66.90;;;;;;5191232;28;20104;-68
2021/06/17 03:33:26;;;;;;;12.23;11.05;;;16.30;66.50;;;;;;5192044;28;20123;-71
2021/06/17 03:36:01;;;;;;;12.63;11.57;;;16.30;66.20;;;;;;5172930;28;20045;-70
2021/06/17 03:38:35;;;;;;;11.90;11.00;;;16.20;66.40;;;;;;5171799;28;20084;-69
2021/06/17 03:41:09;;;;;;;12.35;11.30;;;16.20;67.00;;;;;;5190939;28;20050;-69
2021/06/17 03:43:43;;;;;;;12.40;11.30;;;16.20;67.80;;;;;;5186965;28;20133;-69
2021/06/17 03:46:17;;;;;;;12.50;11.40;;;16.10;67.80;;;;;;5170073;28;20123;-69
2021/06/17 03:48:50;;;;;;;12.10;11.10;;;16.10;68.30;;;;;;5193046;28;20045;-69
2021/06/17 03:51:23;;;;;;;12.65;11.60;;;16.20;67.80;;;;;;5190817;28;20077;-69
2021/06/17 03:53:56;;;;;;;12.40;11.40;;;16.20;68.50;;;;;;5192720;28;20041;-68
2021/06/17 03:56:28;;;;;;;12.18;11.10;;;16.10;68.50;;;;;;5171942;28;20046;-69
2021/06/17 03:59:01;;;;;;;11.30;10.40;;;16.10;68.20;;;;;;5176795;28;20030;-70
2021/06/17 04:01:34;;;;;;;11.60;10.57;;;16.10;68.00;;;;;;5190833;28;20135;-70
2021/06/17 04:04:06;;;;;;;12.00;11.00;;;16.10;67.50;;;;;;5176394;28;20124;-69
2021/06/17 04:07:01;;;;;;;11.65;10.73;;;16.10;67.30;;;;;;5190785;28;20091;-69
2021/06/17 04:09:36;;;;;;;11.70;10.80;;;16.10;68.40;;;;;;5175954;28;20045;-69
2021/06/17 04:12:12;;;;;;;11.85;10.75;;;16.20;67.90;;;;;;5189629;28;20064;-71
2021/06/17 04:14:48;;;;;;;12.65;10.95;;;16.20;67.20;;;;;;5173430;28;20052;-70
2021/06/17 04:17:26;;;;;;;12.13;11.20;;;16.30;68.10;;;;;;5188609;28;20119;-69
2021/06/17 04:19:59;;;;;;;12.63;11.52;;;16.20;67.10;;;;;;5191393;28;20050;-69
2021/06/17 04:22:37;;;;;;;12.63;11.45;;;16.20;68.00;;;;;;5190043;28;20045;-69
2021/06/17 04:25:11;;;;;;;12.18;11.13;;;16.20;67.40;;;;;;5187425;28;20042;-70
2021/06/17 04:27:44;;;;;;;12.70;11.50;;;16.30;67.80;;;;;;5189485;28;20124;-70
2021/06/17 04:30:18;;;;;;;13.35;12.15;;;16.30;68.60;;;;;;5190377;28;20165;-69
2021/06/17 04:32:50;;;;;;;13.05;11.85;;;16.30;69.30;;;;;;5173417;28;20077;-70
2021/06/17 04:35:24;;;;;;;13.35;12.25;;;16.30;69.50;;;;;;5189430;28;20045;-69
2021/06/17 04:37:57;;;;;;;12.77;11.77;;;16.40;69.90;;;;;;5187080;28;20042;-70
2021/06/17 04:40:30;;;;;;;13.07;11.90;;;16.50;69.00;;;;;;5189894;28;20048;-71
2021/06/17 04:43:03;;;;;;;13.18;12.13;;;16.50;70.80;;;;;;5192101;28;20034;-70
2021/06/17 04:45:36;;;;;;;12.63;11.63;;;16.60;70.00;;;;;;5189844;28;20558;-70
2021/06/17 04:48:11;;;;;;;13.57;12.25;;;16.70;70.50;;;;;;5695885;22;20016;-70
2021/06/17 04:50:45;;;;;;;12.82;11.80;;;16.70;70.20;;;;;;5198552;28;20049;-72
2021/06/17 04:53:19;;;;;;;13.73;12.43;;;16.80;70.00;;;;;;5211265;28;20068;-71
2021/06/17 04:55:53;;;;;;;12.75;11.73;;;17.00;69.60;;;;;;5212675;28;20457;-69
2021/06/17 04:58:26;;;;;;;12.93;11.73;;;17.10;69.80;;;;;;5198797;28;20091;-72
2021/06/17 05:00:57;;;;;;;13.85;12.70;;;17.30;69.40;;;;;;5188576;28;20110;-69
2021/06/17 05:03:29;;;;;;;14.52;13.23;;;17.40;69.60;;;;;;5194641;28;20041;-69
2021/06/17 05:06:03;;;;;;;14.50;13.05;;;17.60;69.10;;;;;;5188556;28;20144;-69
2021/06/17 05:11:26;;;;;;;14.30;12.95;;;17.80;69.50;;;;;;5187849;28;20572;-71
2021/06/17 05:13:59;;;;;;;14.43;13.13;;;17.90;68.40;;;;;;5188570;28;20119;-69
2021/06/17 05:16:31;;;;;;;14.30;12.90;;;18.00;68.60;;;;;;5188023;28;20132;-69
2021/06/17 05:19:03;;;;;;;15.10;13.70;;;18.10;68.50;;;;;;5177382;28;20054;-69
2021/06/17 05:21:35;;;;;;;13.93;12.63;;;18.20;68.50;;;;;;5185269;28;20061;-69
2021/06/17 05:24:08;;;;;;;14.25;12.98;;;18.30;69.00;;;;;;5187843;28;20637;-69
2021/06/17 05:26:40;;;;;;;14.30;13.10;;;18.40;69.80;;;;;;5185657;28;20627;-68
2021/06/17 05:29:12;;;;;;;14.82;13.63;;;18.60;69.70;;;;;;5192354;28;20096;-70
2021/06/17 05:31:43;;;;;;;14.82;13.60;;;18.70;69.30;;;;;;5190017;28;20115;-69
2021/06/17 05:34:16;;;;;;;14.07;12.75;;;18.80;67.90;;;;;;5187999;28;20068;-69
2021/06/17 05:36:48;;;;;;;14.75;13.55;;;19.00;67.20;;;;;;5184332;28;20457;-70
2021/06/17 05:39:20;;;;;;;15.10;13.80;;;19.10;66.20;;;;;;5184888;28;20442;-69
2021/06/17 05:41:52;;;;;;;14.65;13.45;;;19.30;66.80;;;;;;5185689;28;20048;-69
2021/06/17 05:44:24;;;;;;;14.10;12.82;;;19.40;65.80;;;;;;5186590;28;20455;-70
2021/06/17 05:46:55;;;;;;;14.43;13.32;;;19.50;66.10;;;;;;5189087;28;20038;-71
2021/06/17 05:49:27;;;;;;;15.68;14.25;;;19.70;67.30;;;;;;5186738;28;20069;-70
2021/06/17 05:51:59;;;;;;;14.68;13.30;;;19.80;66.90;;;;;;5172514;28;20142;-71
2021/06/17 05:54:32;;;;;;;15.27;13.77;;;19.90;68.30;;;;;;5186386;28;20042;-70
2021/06/17 05:57:04;;;;;;;15.40;14.20;;;20.10;66.70;;;;;;5187477;28;20846;-70
2021/06/17 05:59:36;;;;;;;14.52;13.43;;;20.20;65.10;;;;;;5188182;28;20080;-70
2021/06/17 06:02:10;;;;;;;14.60;13.48;;;20.30;65.60;;;;;;5187573;28;20127;-70
2021/06/17 06:04:42;;;;;;;13.95;12.85;;;20.40;63.60;;;;;;5186456;28;20532;-70
2021/06/17 06:07:14;;;;;;;14.70;13.38;;;20.40;62.00;;;;;;5185098;28;20514;-70
2021/06/17 06:09:46;;;;;;;14.38;13.18;;;20.50;62.70;;;;;;5188560;28;20125;-71
2021/06/17 06:12:18;;;;;;;14.55;13.35;;;20.70;63.20;;;;;;5185069;28;20045;-72
2021/06/17 06:14:50;;;;;;;14.23;13.00;;;20.80;62.00;;;;;;5187300;28;20049;-70
2021/06/17 06:17:22;;;;;;;14.75;13.45;;;20.90;60.40;;;;;;5186054;28;20037;-70
2021/06/17 06:19:55;;;;;;;14.57;13.38;;;21.00;60.90;;;;;;5183791;28;20060;-70
2021/06/17 06:22:27;;;;;;;14.43;13.23;;;21.20;60.30;;;;;;5181511;28;20045;-71
2021/06/17 06:24:59;;;;;;;14.70;13.60;;;21.30;60.40;;;;;;5186706;28;20069;-72
2021/06/17 06:27:31;;;;;;;15.10;13.57;;;21.30;59.20;;;;;;5186140;28;20096;-70
2021/06/17 06:30:03;;;;;;;14.65;13.40;;;21.50;60.40;;;;;;5194797;28;20098;-72
2021/06/17 06:32:35;;;;;;;13.90;12.73;;;21.60;58.70;;;;;;5171467;28;20124;-70
2021/06/17 06:35:12;;;;;;;14.50;13.10;;;21.70;58.70;;;;;;5187793;28;20100;-70
2021/06/17 06:37:49;;;;;;;13.85;12.75;;;21.80;58.30;;;;;;5186059;28;20046;-70
2021/06/17 06:40:27;;;;;;;14.30;12.85;;;21.90;58.10;;;;;;5187830;28;20037;-71
2021/06/17 06:42:59;;;;;;;14.70;13.23;;;22.10;59.40;;;;;;5189324;28;20121;-72
2021/06/17 06:45:31;;;;;;;14.75;13.30;;;22.20;58.30;;;;;;5185974;28;20057;-72
2021/06/17 06:48:04;;;;;;;14.80;13.45;;;22.30;57.70;;;;;;5185043;28;20034;-71
2021/06/17 06:50:37;;;;;;;14.40;13.10;;;22.40;58.10;;;;;;5178831;28;20057;-71
2021/06/17 06:53:08;;;;;;;14.00;12.80;;;22.60;60.10;;;;;;5187626;28;20479;-71
2021/06/17 06:55:41;;;;;;;14.30;12.85;;;22.70;58.00;;;;;;5189499;28;20539;-72
2021/06/17 06:58:14;;;;;;;14.20;12.95;;;22.80;57.80;;;;;;5186268;28;20096;-71
2021/06/17 07:00:46;;;;;;;22.77;15.18;;;22.90;58.80;;;;;;5184136;28;20053;-71
2021/06/17 07:03:18;;;;;;;18.92;14.70;;;23.00;60.30;;;;;;5194141;28;20040;-71
2021/06/17 07:05:50;;;;;;;15.60;14.13;;;23.10;59.60;;;;;;5187662;28;20050;-71
2021/06/17 07:08:22;;;;;;;14.63;13.43;;;23.10;58.30;;;;;;5185523;28;20066;-71
2021/06/17 07:10:53;;;;;;;15.23;13.75;;;23.30;58.00;;;;;;5182045;28;20058;-71
2021/06/17 07:13:27;;;;;;;14.52;13.32;;;23.40;57.80;;;;;;5187290;28;20046;-71
2021/06/17 07:15:59;;;;;;;14.95;13.65;;;23.50;54.10;;;;;;5184235;28;20798;-71
2021/06/17 07:18:32;;;;;;;14.88;13.68;;;23.50;52.90;;;;;;5186735;28;20083;-71
2021/06/17 07:21:04;;;;;;;14.40;13.30;;;23.70;54.30;;;;;;5197025;28;20096;-71
2021/06/17 07:23:36;;;;;;;14.43;13.32;;;23.70;50.50;;;;;;5191245;28;20787;-71
2021/06/17 07:26:08;;;;;;;14.10;13.00;;;23.80;51.70;;;;;;5188414;28;20042;-70
2021/06/17 07:28:40;;;;;;;14.70;13.45;;;24.00;52.00;;;;;;5190744;28;20515;-71
2021/06/17 07:31:12;;;;;;;15.18;14.00;;;24.10;53.30;;;;;;5180822;28;20144;-71
2021/06/17 07:33:44;;;;;;;15.30;14.02;;;24.20;52.60;;;;;;5190257;28;20045;-70
2021/06/17 07:36:17;;;;;;;14.43;13.23;;;24.30;49.10;;;;;;5187673;28;20129;-70
2021/06/17 07:38:49;;;;;;;14.48;13.25;;;24.30;47.00;;;;;;5190325;28;20050;-71
2021/06/17 07:41:21;;;;;;;14.80;13.60;;;24.40;50.70;;;;;;5192078;28;20103;-71
2021/06/17 07:43:53;;;;;;;14.90;13.80;;;24.60;48.30;;;;;;5193860;28;20099;-71
2021/06/17 07:46:25;;;;;;;14.90;13.68;;;24.70;48.90;;;;;;5190422;28;20519;-72
2021/06/17 07:49:01;;;;;;;14.60;13.48;;;24.70;50.10;;;;;;5203636;28;20228;-70
2021/06/17 07:51:33;;;;;;;14.40;13.30;;;24.80;45.90;;;;;;5205666;28;20515;-71
2021/06/17 07:54:05;;;;;;;14.98;13.77;;;25.00;52.20;;;;;;5190580;28;20133;-71
2021/06/17 07:56:37;;;;;;;14.82;13.68;;;25.10;49.10;;;;;;5190347;28;20041;-70
2021/06/17 07:59:08;;;;;;;14.70;13.60;;;25.10;46.70;;;;;;5187742;28;20143;-70
2021/06/17 08:01:40;;;;;;;14.77;13.68;;;25.20;45.70;;;;;;5194385;28;20470;-70
2021/06/17 08:04:13;;;;;;;14.63;13.40;;;25.30;46.90;;;;;;5192457;28;20614;-70
2021/06/17 08:06:45;;;;;;;15.63;14.20;;;25.40;46.20;;;;;;5189131;28;20065;-71
2021/06/17 08:09:19;;;;;;;15.65;14.07;;;25.50;45.30;;;;;;5173041;28;20123;-71
2021/06/17 08:11:52;;;;;;;15.55;14.25;;;25.60;42.90;;;;;;5186932;28;20045;-71
2021/06/17 08:14:29;;;;;;;14.95;13.85;;;25.60;42.70;;;;;;5189219;28;20128;-71
2021/06/17 08:17:01;;;;;;;15.27;13.88;;;25.80;43.70;;;;;;5188291;28;20129;-73
2021/06/17 08:19:33;;;;;;;15.15;14.05;;;25.80;43.10;;;;;;5195991;28;20088;-71
2021/06/17 08:22:10;;;;;;;15.10;13.80;;;25.90;45.00;;;;;;5197187;28;20099;-72
2021/06/17 08:24:45;;;;;;;15.40;14.10;;;26.00;43.20;;;;;;5197589;28;20182;-72
2021/06/17 08:27:17;;;;;;;14.90;13.70;;;26.10;45.70;;;;;;5190299;28;20065;-71
2021/06/17 08:29:49;;;;;;;15.98;14.45;;;26.10;43.60;;;;;;5188842;28;20510;-72
2021/06/17 08:32:21;;;;;;;14.90;13.68;;;26.20;45.50;;;;;;5196604;28;20561;-71
2021/06/17 08:34:53;;;;;;;14.38;13.27;;;26.30;44.70;;;;;;5191021;28;20049;-71
2021/06/17 08:37:25;;;;;;;15.30;13.77;;;26.30;43.10;;;;;;5186152;28;20057;-72
2021/06/17 08:39:58;;;;;;;14.02;12.82;;;26.40;44.60;;;;;;5190718;28;20046;-71
2021/06/17 08:42:31;;;;;;;14.07;12.98;;;26.50;44.40;;;;;;5189720;28;20042;-71
2021/06/17 08:45:07;;;;;;;15.10;13.73;;;26.50;43.90;;;;;;5180455;28;20068;-73
2021/06/17 08:47:40;;;;;;;15.18;13.85;;;26.60;43.00;;;;;;5188634;28;20100;-71
2021/06/17 08:50:14;;;;;;;15.20;14.00;;;26.60;44.10;;;;;;5188509;28;20034;-72
2021/06/17 08:52:47;;;;;;;14.70;13.60;;;26.70;44.80;;;;;;5191604;28;20077;-71
2021/06/17 08:55:24;;;;;;;14.80;13.70;;;26.80;45.20;;;;;;5190099;28;20471;-72
2021/06/17 08:57:57;;;;;;;14.60;13.40;;;26.80;45.60;;;;;;5179556;28;20065;-71
2021/06/17 09:00:31;;;;;;;15.18;14.00;;;26.90;44.50;;;;;;5188373;28;20073;-71
2021/06/17 09:03:06;;;;;;;15.50;14.30;;;27.00;44.50;;;;;;5188092;28;20096;-71
2021/06/17 09:05:45;;;;;;;15.10;14.00;;;27.10;45.20;;;;;;5173346;28;20468;-71
2021/06/17 09:08:23;;;;;;;14.60;13.50;;;27.10;46.20;;;;;;5189120;28;20569;-71
2021/06/17 09:10:56;;;;;;;14.80;13.60;;;27.20;44.40;;;;;;5185220;28;20706;-71
2021/06/17 09:13:33;;;;;;;14.50;13.40;;;27.30;43.10;;;;;;5186503;28;20046;-71
2021/06/17 09:16:06;;;;;;;14.90;13.60;;;27.30;43.90;;;;;;5186946;28;20136;-71
2021/06/17 09:18:43;;;;;;;14.85;13.52;;;27.40;42.70;;;;;;5189823;28;20567;-71
2021/06/17 09:21:14;;;;;;;14.77;13.68;;;27.50;43.40;;;;;;5189496;28;20046;-71
2021/06/17 09:23:50;;;;;;;15.18;14.07;;;27.50;43.10;;;;;;5188949;28;20087;-73
2021/06/17 09:26:23;;;;;;;15.38;14.20;;;27.60;43.60;;;;;;5190454;28;20494;-72
2021/06/17 09:29:00;;;;;;;15.32;14.05;;;27.70;41.00;;;;;;5190835;28;20491;-72
2021/06/17 09:31:32;;;;;;;15.35;14.23;;;27.70;41.90;;;;;;5188533;28;20065;-72
2021/06/17 09:34:06;;;;;;;15.75;14.40;;;27.70;43.20;;;;;;5189001;28;20076;-72
2021/06/17 09:36:40;;;;;;;15.98;14.77;;;27.80;42.90;;;;;;5187428;28;20667;-74
2021/06/17 09:39:19;;;;;;;16.42;14.93;;;27.80;42.80;;;;;;5188389;28;20046;-72
2021/06/17 09:41:52;;;;;;;16.08;14.80;;;27.90;42.00;;;;;;5188138;28;20049;-73
2021/06/17 09:44:41;;;;;;;16.55;15.15;;;27.90;42.80;;;;;;5186999;28;20168;-72
2021/06/17 09:47:25;;;;;;;15.27;14.10;;;27.90;40.10;;;;;;5185744;28;20065;-71
2021/06/17 09:50:00;;;;;;;15.57;14.27;;;28.00;40.90;;;;;;5189234;28;20117;-73
2021/06/17 09:52:39;;;;;;;16.00;14.60;;;28.10;43.30;;;;;;5188288;28;20503;-71
2021/06/17 09:55:11;;;;;;;15.52;14.30;;;28.20;43.10;;;;;;5186583;28;20045;-72
2021/06/17 09:57:44;;;;;;;16.30;15.10;;;28.30;43.50;;;;;;5171145;28;20511;-71
2021/06/17 10:00:16;;;;;;;15.85;14.60;;;28.40;42.70;;;;;;5170901;28;20455;-71
2021/06/17 10:02:48;;;;;;;15.80;14.60;;;28.40;39.60;;;;;;5188581;28;20046;-71
2021/06/17 10:05:22;;;;;;;16.02;14.88;;;28.50;39.60;;;;;;5189802;28;20149;-72
2021/06/17 10:07:54;;;;;;;15.68;14.55;;;28.50;41.50;;;;;;5178281;28;20050;-71
2021/06/17 10:10:30;;;;;;;15.80;14.60;;;28.60;39.90;;;;;;5189445;28;20576;-71
2021/06/17 10:17:15;;;;;;;15.90;14.40;;;28.80;41.10;;;;;;5186788;28;20132;-71
2021/06/17 10:19:48;;;;;;;15.48;14.38;;;28.80;38.70;;;;;;5188440;28;20064;-71
2021/06/17 10:22:28;;;;;;;16.13;14.93;;;28.80;37.80;;;;;;5188255;28;20076;-71
2021/06/17 10:25:00;;;;;;;15.65;14.55;;;28.80;36.40;;;;;;5187051;28;20128;-71
2021/06/17 10:27:42;;;;;;;15.18;13.98;;;28.90;37.20;;;;;;5186376;28;20092;-71
2021/06/17 10:30:14;;;;;;;14.93;13.63;;;28.90;37.10;;;;;;5188436;28;20119;-71
2021/06/17 10:32:50;;;;;;;15.57;14.25;;;29.00;37.70;;;;;;5186451;28;20077;-73
2021/06/17 10:35:29;;;;;;;15.80;14.50;;;29.00;37.80;;;;;;5189129;28;20135;-72
2021/06/17 10:38:04;;;;;;;15.50;14.20;;;29.10;37.90;;;;;;5187204;28;20049;-71
2021/06/17 10:40:43;;;;;;;15.82;14.45;;;29.20;35.10;;;;;;5189196;28;20160;-71
2021/06/17 10:43:20;;;;;;;16.10;14.80;;;29.20;36.90;;;;;;5189312;28;20044;-71
2021/06/17 10:45:52;;;;;;;15.25;14.15;;;29.30;35.30;;;;;;5186191;28;20662;-70
2021/06/17 10:48:40;;;;;;;15.00;13.90;;;29.40;35.50;;;;;;5155789;28;20121;-71
2021/06/17 10:51:12;;;;;;;15.70;14.50;;;29.40;36.80;;;;;;5189109;28;20513;-72
2021/06/17 10:53:46;;;;;;;16.35;15.05;;;29.50;35.90;;;;;;5186832;28;20052;-71
2021/06/17 10:56:22;;;;;;;15.73;14.57;;;29.50;37.70;;;;;;5186476;28;20462;-72
2021/06/17 10:58:55;;;;;;;16.58;15.30;;;29.60;33.70;;;;;;5192839;28;20112;-71
2021/06/17 11:01:42;;;;;;;16.77;15.48;;;29.60;34.70;;;;;;5188620;28;20050;-72
2021/06/17 11:04:20;;;;;;;16.48;15.05;;;29.60;35.00;;;;;;5188286;28;20420;-71
2021/06/17 11:07:08;;;;;;;16.10;14.90;;;29.70;36.00;;;;;;5188421;28;20066;-71
2021/06/17 11:09:43;;;;;;;16.83;15.35;;;29.80;37.50;;;;;;5190647;28;20071;-71
2021/06/17 11:12:19;;;;;;;16.35;15.15;;;29.90;38.10;;;;;;5189430;28;20157;-71
2021/06/17 11:14:54;;;;;;;16.35;15.05;;;30.00;39.40;;;;;;5189698;28;20132;-71
2021/06/17 11:17:27;;;;;;;16.33;15.13;;;30.00;35.20;;;;;;5191958;28;20119;-72
2021/06/17 11:20:23;;;;;;;16.80;15.50;;;30.10;34.00;;;;;;5194048;28;20483;-73
2021/06/17 11:22:59;;;;;;;16.70;15.35;;;30.10;35.00;;;;;;5192288;28;20052;-71
2021/06/17 11:25:35;;;;;;;17.00;15.70;;;30.10;37.50;;;;;;5190952;28;20584;-73
2021/06/17 11:28:09;;;;;;;16.45;15.15;;;30.30;35.10;;;;;;5190743;28;20104;-70
2021/06/17 11:30:46;;;;;;;16.67;15.35;;;30.40;35.00;;;;;;5189062;28;20074;-71
2021/06/17 11:33:18;;;;;;;17.83;16.23;;;30.50;37.40;;;;;;5191403;28;20423;-71
2021/06/17 11:36:02;;;;;;;17.13;15.63;;;30.60;37.70;;;;;;5188970;28;20045;-71
2021/06/17 11:38:36;;;;;;;17.17;15.68;;;30.80;37.20;;;;;;5188569;28;20099;-71
2021/06/17 11:41:16;;;;;;;47.30;24.08;;;30.80;37.80;;;;;;5192501;28;20045;-70
2021/06/17 11:44:03;;;;;;;123.88;39.10;;;30.80;37.90;;;;;;5191445;28;20275;-69
2021/06/17 11:46:39;;;;;;;40.65;22.02;;;30.80;35.70;;;;;;5192115;28;20050;-70
2021/06/17 11:49:33;;;;;;;18.00;16.60;;;30.70;39.00;;;;;;5182029;28;20047;-70
2021/06/17 11:52:15;;;;;;;17.98;16.13;;;30.70;38.60;;;;;;5186986;28;20042;-70
2021/06/17 11:54:48;;;;;;;55.28;17.88;;;30.70;36.00;;;;;;5189926;28;20045;-70
2021/06/17 11:57:26;;;;;;;116.82;22.23;;;30.60;37.10;;;;;;5187997;28;20038;-73
2021/06/17 11:59:58;;;;;;;18.17;16.05;;;30.60;34.70;;;;;;5189717;28;20061;-70
2021/06/17 12:02:30;;;;;;;17.55;15.80;;;30.60;36.60;;;;;;5190419;28;20494;-70
2021/06/17 12:05:08;;;;;;;17.85;16.10;;;30.50;36.40;;;;;;5191468;28;20510;-70
2021/06/17 12:07:45;;;;;;;16.98;15.57;;;30.50;36.70;;;;;;5189041;28;20065;-71
2021/06/17 12:10:24;;;;;;;17.08;15.68;;;30.70;37.60;;;;;;5188879;28;20743;-71
2021/06/17 12:12:59;;;;;;;17.38;16.08;;;30.70;34.30;;;;;;5191841;28;20049;-71
2021/06/17 12:15:40;;;;;;;17.20;15.80;;;30.70;33.90;;;;;;5188196;28;20140;-72
2021/06/17 12:18:17;;;;;;;17.48;16.17;;;30.80;36.10;;;;;;5187173;28;20104;-71
2021/06/17 12:20:50;;;;;;;16.90;15.60;;;30.90;37.20;;;;;;5190734;28;20053;-72
2021/06/17 12:23:31;;;;;;;17.15;15.63;;;30.90;33.90;;;;;;5195909;28;20030;-71
2021/06/17 12:26:06;;;;;;;16.83;15.55;;;31.00;34.00;;;;;;5185999;28;20054;-71
2021/06/17 12:28:56;;;;;;;17.20;15.70;;;31.00;36.20;;;;;;5189249;28;20100;-72
2021/06/17 12:31:37;;;;;;;16.73;15.32;;;31.10;35.20;;;;;;5188310;28;20137;-71
2021/06/17 12:34:12;;;;;;;17.05;15.45;;;31.10;36.00;;;;;;5191307;28;20100;-71
2021/06/17 12:36:58;;;;;;;17.52;16.02;;;31.10;35.10;;;;;;5190863;28;20073;-72
2021/06/17 12:39:30;;;;;;;17.17;15.88;;;31.20;33.60;;;;;;5176237;28;20828;-72
2021/06/17 12:42:13;;;;;;;17.55;16.25;;;31.20;33.50;;;;;;5188870;28;20100;-74
2021/06/17 12:44:45;;;;;;;17.05;15.75;;;31.10;36.10;;;;;;5190178;28;20119;-71
2021/06/17 12:47:19;;;;;;;17.80;16.48;;;31.30;39.00;;;;;;5187891;28;20128;-71
2021/06/17 12:52:59;;;;;;;17.58;16.15;;;31.40;35.10;;;;;;5186109;28;20052;-71
2021/06/17 12:55:37;;;;;;;17.50;16.10;;;31.40;35.20;;;;;;5186891;28;20053;-72
2021/06/17 12:58:14;;;;;;;17.67;16.33;;;31.30;37.20;;;;;;5189566;28;20177;-73
2021/06/17 13:00:59;;;;;;;17.92;16.42;;;31.20;35.40;;;;;;5189518;28;20281;-72
2021/06/17 13:03:31;;;;;;;17.90;16.30;;;31.10;36.40;;;;;;5189447;28;20103;-74
2021/06/17 13:06:03;;;;;;;17.40;16.00;;;31.10;33.60;;;;;;5179555;28;20503;-72
2021/06/17 13:08:50;;;;;;;18.27;16.80;;;31.10;36.90;;;;;;5187559;28;20041;-74
2021/06/17 13:11:30;;;;;;;17.92;16.40;;;31.20;34.10;;;;;;5194489;28;20052;-72
2021/06/17 13:14:05;;;;;;;;;;;31.20;33.40;;;;;;5189968;28;20057;-72
2021/06/17 13:16:38;;;;;;;17.77;16.38;;;31.20;34.80;;;;;;5188061;28;19931;-72